createdAt,value
2023-03-21T00:01:54.731Z,99172.36
2023-03-21T00:04:28.436Z,99172.33
2023-03-21T00:07:00.475Z,99170.89
2023-03-21T00:09:31.339Z,99170.09
2023-03-21T00:12:02.820Z,99172.81
2023-03-21T00:14:33.516Z,99177.72
2023-03-21T00:17:04.176Z,99174.34
2023-03-21T00:19:38.390Z,99169.41
2023-03-21T00:22:09.415Z,99171.65
2023-03-21T00:24:40.771Z,99165.27
2023-03-21T00:27:38.405Z,99162.89
2023-03-21T00:30:02.210Z,99154.77
2023-03-21T00:32:35.630Z,99144.67
2023-03-21T00:35:45.313Z,99140.61
2023-03-21T00:38:01.171Z,99133.00
2023-03-21T00:40:35.342Z,99129.44
2023-03-21T00:43:12.088Z,99128.16
2023-03-21T00:45:42.920Z,99122.63
2023-03-21T00:48:14.043Z,99127.02
2023-03-21T00:50:46.976Z,99125.11
2023-03-21T00:53:18.180Z,99124.19
2023-03-21T00:55:49.480Z,99125.48
2023-03-21T00:58:20.625Z,99125.38
2023-03-21T01:00:51.540Z,99122.68
2023-03-21T01:03:25.311Z,99120.09
2023-03-21T01:06:06.046Z,99120.73
2023-03-21T01:08:51.354Z,99121.85
2023-03-21T01:11:25.895Z,99118.14
2023-03-21T01:14:10.820Z,99112.87
2023-03-21T01:16:45.996Z,99110.23
2023-03-21T01:19:38.024Z,99111.61
2023-03-21T01:22:10.337Z,99111.58
2023-03-21T01:24:52.432Z,99113.27
2023-03-21T01:27:26.351Z,99112.94
2023-03-21T01:29:57.814Z,99118.73
2023-03-21T01:32:29.406Z,99118.97
2023-03-21T01:35:00.613Z,99115.23
2023-03-21T01:37:32.595Z,99115.55
2023-03-21T01:40:04.758Z,99112.47
2023-03-21T01:42:35.860Z,99117.91
2023-03-21T01:45:22.811Z,99115.31
2023-03-21T01:47:53.603Z,99116.27
2023-03-21T01:50:25.686Z,99112.12
2023-03-21T01:52:56.722Z,99108.17
2023-03-21T01:55:27.853Z,99109.80
2023-03-21T01:58:06.427Z,99108.01
2023-03-21T02:00:39.477Z,99106.85
2023-03-21T02:03:26.157Z,99108.86
2023-03-21T02:06:07.738Z,99107.05
2023-03-21T02:08:40.016Z,99106.88
2023-03-21T02:11:11.730Z,99103.84
2023-03-21T02:13:42.567Z,99102.74
2023-03-21T02:16:19.501Z,99105.69
2023-03-21T02:18:59.961Z,99101.14
2023-03-21T02:21:56.929Z,99104.29
2023-03-21T02:25:21.302Z,99105.20
2023-03-21T02:27:57.354Z,99104.13
2023-03-21T02:31:04.610Z,99104.65
2023-03-21T02:34:10.644Z,99106.49
2023-03-21T02:37:04.277Z,99109.10
2023-03-21T02:39:46.396Z,99107.94
2023-03-21T02:42:22.279Z,99101.44
2023-03-21T02:45:03.343Z,99103.80
2023-03-21T02:47:40.388Z,99099.30
2023-03-21T02:50:16.989Z,99100.02
2023-03-21T02:52:51.126Z,99103.52
2023-03-21T02:55:26.653Z,99104.27
2023-03-21T02:58:11.647Z,99104.95
2023-03-21T03:00:44.839Z,99100.94
2023-03-21T03:03:28.036Z,99100.21
2023-03-21T03:06:06.518Z,99096.23
2023-03-21T03:08:56.340Z,99099.60
2023-03-21T03:11:36.086Z,99094.74
2023-03-21T03:14:44.203Z,99097.02
2023-03-21T03:17:29.795Z,99096.30
2023-03-21T03:20:19.163Z,99096.02
2023-03-21T03:22:59.780Z,99095.59
2023-03-21T03:25:42.937Z,99093.02
2023-03-21T03:28:17.573Z,99093.25
2023-03-21T03:31:05.498Z,99094.30
2023-03-21T03:37:26.325Z,99093.55
2023-03-21T03:40:05.723Z,99091.89
2023-03-21T03:42:42.164Z,99094.38
2023-03-21T03:45:13.998Z,99097.13
2023-03-21T03:47:56.792Z,99099.02
2023-03-21T03:50:32.989Z,99094.17
2023-03-21T03:53:17.710Z,99094.60
2023-03-21T03:55:51.049Z,99089.39
2023-03-21T03:58:27.468Z,99089.79
2023-03-21T04:01:04.240Z,99089.88
2023-03-21T04:03:48.362Z,99091.40
2023-03-21T04:06:22.149Z,99089.27
2023-03-21T04:08:52.989Z,99089.10
2023-03-21T04:11:23.653Z,99089.11
2023-03-21T04:13:54.446Z,99086.79
2023-03-21T04:16:25.609Z,99087.66
2023-03-21T04:18:56.329Z,99090.83
2023-03-21T04:21:27.689Z,99092.48
2023-03-21T04:23:58.661Z,99096.96
2023-03-21T04:26:33.124Z,99094.34
2023-03-21T04:29:04.294Z,99097.50
2023-03-21T04:31:36.152Z,99103.61
2023-03-21T04:34:10.047Z,99104.52
2023-03-21T04:36:44.637Z,99105.85
2023-03-21T04:39:16.303Z,99106.17
2023-03-21T04:41:47.884Z,99107.44
2023-03-21T04:44:19.389Z,99108.92
2023-03-21T04:46:50.526Z,99111.17
2023-03-21T04:49:21.476Z,99109.02
2023-03-21T04:51:52.196Z,99109.14
2023-03-21T04:54:22.936Z,99110.73
2023-03-21T04:56:53.879Z,99113.94
2023-03-21T04:59:24.611Z,99115.91
2023-03-21T05:01:56.895Z,99113.94
2023-03-21T05:04:28.562Z,99112.73
2023-03-21T05:06:59.503Z,99112.70
2023-03-21T05:09:30.220Z,99114.70
2023-03-21T05:12:00.846Z,99114.40
2023-03-21T05:14:31.777Z,99114.05
2023-03-21T05:17:05.347Z,99114.07
2023-03-21T05:19:36.350Z,99115.77
2023-03-21T05:22:10.870Z,99117.86
2023-03-21T05:24:41.993Z,99118.20
2023-03-21T05:27:14.231Z,99118.95
2023-03-21T05:29:45.029Z,99122.99
2023-03-21T05:32:15.661Z,99118.63
2023-03-21T05:34:46.400Z,99121.52
2023-03-21T05:37:17.445Z,99122.59
2023-03-21T05:39:48.079Z,99121.77
2023-03-21T05:42:19.788Z,99118.42
2023-03-21T05:44:50.870Z,99118.83
2023-03-21T05:47:21.688Z,99116.11
2023-03-21T05:49:52.336Z,99113.49
2023-03-21T05:52:22.998Z,99112.52
2023-03-21T05:54:53.634Z,99107.77
2023-03-21T05:57:24.772Z,99111.54
2023-03-21T05:59:55.474Z,99116.18
2023-03-21T06:02:26.235Z,99116.96
2023-03-21T06:04:57.611Z,99117.61
2023-03-21T06:07:28.526Z,99118.58
2023-03-21T06:09:59.199Z,99121.27
2023-03-21T06:12:30.143Z,99122.89
2023-03-21T06:15:01.899Z,99126.67
2023-03-21T06:17:32.999Z,99124.11
2023-03-21T06:20:05.160Z,99128.27
2023-03-21T06:22:37.162Z,99129.56
2023-03-21T06:25:10.362Z,99133.02
2023-03-21T06:27:41.135Z,99131.69
2023-03-21T06:30:13.557Z,99133.45
2023-03-21T06:32:44.221Z,99131.05
2023-03-21T06:35:15.674Z,99129.31
2023-03-21T06:37:49.530Z,99131.95
2023-03-21T06:40:22.188Z,99131.54
2023-03-21T06:42:52.907Z,99131.39
2023-03-21T06:45:23.771Z,99132.80
2023-03-21T06:47:54.493Z,99131.28
2023-03-21T06:50:25.557Z,99140.69
2023-03-21T06:52:57.568Z,99139.06
2023-03-21T06:55:29.065Z,99141.55
2023-03-21T06:58:00.430Z,99142.14
2023-03-21T07:00:31.699Z,99144.83
2023-03-21T07:03:03.028Z,99144.48
2023-03-21T07:05:33.857Z,99144.86
2023-03-21T07:08:04.638Z,99147.42
2023-03-21T07:10:35.527Z,99147.55
2023-03-21T07:13:06.271Z,99156.17
2023-03-21T07:15:38.671Z,99158.86
2023-03-21T07:18:11.137Z,99155.43
2023-03-21T07:20:41.950Z,99155.33
2023-03-21T07:23:12.776Z,99153.04
2023-03-21T07:25:43.502Z,99151.30
2023-03-21T07:28:14.284Z,99157.40
2023-03-21T07:30:45.301Z,99161.14
2023-03-21T07:33:16.016Z,99158.34
2023-03-21T07:35:47.224Z,99159.81
2023-03-21T07:38:18.154Z,99160.33
2023-03-21T07:40:49.929Z,99155.92
2023-03-21T07:43:21.183Z,99156.14
2023-03-21T07:45:51.907Z,99160.15
2023-03-21T07:48:22.792Z,99158.27
2023-03-21T07:50:53.694Z,99159.23
2023-03-21T07:53:24.640Z,99160.73
2023-03-21T07:55:56.765Z,99160.05
2023-03-21T07:58:28.702Z,99150.83
2023-03-21T08:01:02.189Z,99154.31
2023-03-21T08:03:33.966Z,99156.29
2023-03-21T08:06:04.948Z,99156.83
2023-03-21T08:08:35.926Z,99157.56
2023-03-21T08:11:08.668Z,99159.66
2023-03-21T08:13:39.480Z,99158.46
2023-03-21T08:16:11.468Z,99162.30
2023-03-21T08:18:42.878Z,99165.59
2023-03-21T08:21:13.690Z,99162.91
2023-03-21T08:23:44.533Z,99167.71
2023-03-21T08:26:18.497Z,99170.01
2023-03-21T08:28:49.277Z,99170.48
2023-03-21T08:31:21.513Z,99175.78
2023-03-21T08:33:54.853Z,99178.10
2023-03-21T08:36:26.211Z,99179.27
2023-03-21T08:39:05.145Z,99178.70
2023-03-21T08:41:36.837Z,99177.29
2023-03-21T08:44:09.593Z,99176.11
2023-03-21T08:46:40.469Z,99172.88
2023-03-21T08:49:12.677Z,99172.04
2023-03-21T08:51:45.818Z,99173.20
2023-03-21T08:54:23.315Z,99172.27
2023-03-21T08:56:54.067Z,99173.08
2023-03-21T08:59:24.840Z,99171.18
2023-03-21T09:01:55.939Z,99170.36
2023-03-21T09:04:27.321Z,99171.76
2023-03-21T09:06:58.180Z,99174.96
2023-03-21T09:09:29.226Z,99175.58
2023-03-21T09:12:00.190Z,99176.67
2023-03-21T09:14:31.043Z,99175.56
2023-03-21T09:17:01.949Z,99184.06
2023-03-21T09:19:32.569Z,99184.02
2023-03-21T09:22:03.864Z,99180.30
2023-03-21T09:24:34.554Z,99184.68
2023-03-21T09:27:05.708Z,99181.05
2023-03-21T09:29:37.076Z,99186.77
2023-03-21T09:32:08.458Z,99184.95
2023-03-21T09:34:39.619Z,99187.20
2023-03-21T09:37:13.927Z,99184.67
2023-03-21T09:39:45.368Z,99183.77
2023-03-21T09:42:31.074Z,99187.34
2023-03-21T09:45:13.962Z,99183.33
2023-03-21T09:47:53.567Z,99186.91
2023-03-21T09:50:28.291Z,99185.65
2023-03-21T09:53:01.542Z,99183.48
2023-03-21T09:55:35.277Z,99180.96
2023-03-21T09:58:07.036Z,99181.52
2023-03-21T10:00:42.158Z,99174.73
2023-03-21T10:03:24.412Z,99174.57
2023-03-21T10:05:58.752Z,99175.46
2023-03-21T10:08:36.502Z,99173.67
2023-03-21T10:11:13.633Z,99168.45
2023-03-21T10:13:49.599Z,99168.95
2023-03-21T10:16:26.387Z,99170.77
2023-03-21T10:18:58.527Z,99169.90
2023-03-21T10:21:56.947Z,99164.23
2023-03-21T10:24:25.655Z,99170.70
2023-03-21T10:26:57.459Z,99164.73
2023-03-21T10:29:33.782Z,99161.33
2023-03-21T10:32:05.816Z,99160.99
2023-03-21T10:34:42.112Z,99160.37
2023-03-21T10:37:15.310Z,99161.09
2023-03-21T10:39:49.640Z,99159.83
2023-03-21T10:42:24.990Z,99159.13
2023-03-21T10:44:57.518Z,99160.09
2023-03-21T10:47:31.577Z,99157.33
2023-03-21T10:50:08.909Z,99157.89
2023-03-21T10:52:44.422Z,99156.17
2023-03-21T10:55:24.409Z,99155.08
2023-03-21T10:58:00.528Z,99155.67
2023-03-21T11:00:36.876Z,99151.52
2023-03-21T11:03:08.386Z,99149.69
2023-03-21T11:05:42.470Z,99151.11
2023-03-21T11:08:16.915Z,99148.41
2023-03-21T11:11:04.576Z,99149.91
2023-03-21T11:13:41.910Z,99142.57
2023-03-21T11:16:20.664Z,99142.64
2023-03-21T11:18:58.198Z,99141.45
2023-03-21T11:21:29.719Z,99136.52
2023-03-21T11:24:01.127Z,99133.47
2023-03-21T11:26:36.893Z,99135.98
2023-03-21T11:29:20.918Z,99130.11
2023-03-21T11:31:52.242Z,99128.23
2023-03-21T11:34:32.829Z,99125.30
2023-03-21T11:37:04.849Z,99123.69
2023-03-21T11:39:40.422Z,99120.11
2023-03-21T11:42:29.501Z,99123.35
2023-03-21T11:45:14.482Z,99118.10
2023-03-21T11:47:45.992Z,99116.77
2023-03-21T11:50:29.230Z,99118.34
2023-03-21T11:53:17.056Z,99112.07
2023-03-21T11:56:03.237Z,99113.59
2023-03-21T11:58:45.387Z,99112.98
2023-03-21T12:01:27.687Z,99108.77
2023-03-21T12:04:19.286Z,99108.41
2023-03-21T12:06:55.349Z,99102.17
2023-03-21T12:09:35.727Z,99096.44
2023-03-21T12:12:39.098Z,99099.53
2023-03-21T12:15:17.681Z,99099.23
2023-03-21T12:17:58.854Z,99095.88
2023-03-21T12:20:43.120Z,99092.90
2023-03-21T12:23:38.697Z,99088.89
2023-03-21T12:26:21.057Z,99082.44
2023-03-21T12:29:06.342Z,99082.50
2023-03-21T12:31:50.883Z,99077.08
2023-03-21T12:34:44.754Z,99077.42
2023-03-21T12:37:25.154Z,99074.77
2023-03-21T12:40:02.607Z,99072.16
2023-03-21T12:42:53.927Z,99067.89
2023-03-21T12:45:37.392Z,99068.95
2023-03-21T12:48:23.946Z,99063.96
2023-03-21T12:50:56.388Z,99062.30
2023-03-21T12:53:37.924Z,99057.48
2023-03-21T12:56:14.475Z,99055.30
2023-03-21T12:58:53.552Z,99049.98
2023-03-21T13:01:25.807Z,99043.83
2023-03-21T13:04:18.082Z,99039.52
2023-03-21T13:06:52.251Z,99033.36
2023-03-21T13:09:37.368Z,99033.05
2023-03-21T13:12:14.849Z,99033.56
2023-03-21T13:14:55.882Z,99033.20
2023-03-21T13:17:36.482Z,99025.66
2023-03-21T13:20:20.324Z,99022.28
2023-03-21T13:22:51.079Z,99019.55
2023-03-21T13:25:24.984Z,99022.38
2023-03-21T13:28:02.276Z,99019.69
2023-03-21T13:30:35.411Z,99016.72
2023-03-21T13:33:13.953Z,99016.80
2023-03-21T13:35:46.768Z,99017.17
2023-03-21T13:38:21.492Z,99014.06
2023-03-21T13:40:58.533Z,99014.80
2023-03-21T13:43:43.580Z,99007.22
2023-03-21T13:46:16.293Z,99008.31
2023-03-21T13:49:00.537Z,99007.59
2023-03-21T13:51:51.765Z,99005.49
2023-03-21T13:54:31.496Z,99003.27
2023-03-21T13:57:06.093Z,99001.28
2023-03-21T13:59:42.713Z,98999.29
2023-03-21T14:02:33.881Z,99000.67
2023-03-21T14:05:07.877Z,98995.62
2023-03-21T14:07:42.248Z,98997.90
2023-03-21T14:10:23.472Z,98996.66
2023-03-21T14:12:55.198Z,98989.19
2023-03-21T14:15:28.047Z,98984.16
2023-03-21T14:18:10.823Z,98982.88
2023-03-21T14:20:57.347Z,98980.17
2023-03-21T14:23:28.412Z,98981.17
2023-03-21T14:25:59.856Z,98972.55
2023-03-21T14:28:33.439Z,98973.44
2023-03-21T14:31:04.552Z,98969.66
2023-03-21T14:33:40.260Z,98966.34
2023-03-21T14:36:15.770Z,98964.08
2023-03-21T14:38:55.322Z,98965.34
2023-03-21T14:41:27.964Z,98969.57
2023-03-21T14:44:24.639Z,98962.46
2023-03-21T14:47:01.661Z,98959.23
2023-03-21T14:49:33.578Z,98958.01
2023-03-21T14:52:06.813Z,98959.90
2023-03-21T14:54:40.713Z,98956.33
2023-03-21T14:57:16.609Z,98952.23
2023-03-21T14:59:51.896Z,98952.39
2023-03-21T15:02:27.714Z,98949.69
2023-03-21T15:05:06.692Z,98948.48
2023-03-21T15:07:39.028Z,98953.58
2023-03-21T15:10:17.917Z,98952.91
2023-03-21T15:12:55.517Z,98951.66
2023-03-21T15:15:28.060Z,98951.49
2023-03-21T15:18:02.474Z,98950.20
2023-03-21T15:20:36.798Z,98949.48
2023-03-21T15:23:13.469Z,98948.84
2023-03-21T15:25:46.217Z,98951.52
2023-03-21T15:28:17.942Z,98947.52
2023-03-21T15:30:53.425Z,98942.12
2023-03-21T15:33:27.180Z,98941.52
2023-03-21T15:35:57.593Z,98938.27
2023-03-21T15:38:34.681Z,98935.91
2023-03-21T15:41:26.975Z,98934.90
2023-03-21T15:44:06.555Z,98935.46
2023-03-21T15:46:43.581Z,98934.67
2023-03-21T15:49:25.819Z,98940.29
2023-03-21T15:52:00.835Z,98939.00
2023-03-21T15:54:34.402Z,98937.58
2023-03-21T15:57:20.044Z,98937.16
2023-03-21T15:59:51.984Z,98941.98
2023-03-21T16:02:26.301Z,98942.27
2023-03-21T16:05:02.873Z,98942.61
2023-03-21T16:07:36.327Z,98945.18
2023-03-21T16:10:19.986Z,98943.96
2023-03-21T16:12:51.735Z,98944.02
2023-03-21T16:15:23.038Z,98947.95
2023-03-21T16:17:56.402Z,98945.02
2023-03-21T16:20:31.373Z,98945.89
2023-03-21T16:23:02.791Z,98941.87
2023-03-21T16:25:37.461Z,98942.60
2023-03-21T16:28:13.838Z,98941.59
2023-03-21T16:30:45.277Z,98938.08
2023-03-21T16:33:16.726Z,98938.54
2023-03-21T16:35:47.584Z,98933.62
2023-03-21T16:38:19.305Z,98942.37
2023-03-21T16:40:51.224Z,98938.90
2023-03-21T16:43:22.036Z,98945.48
2023-03-21T16:45:52.961Z,98948.16
2023-03-21T16:48:23.980Z,98948.05
2023-03-21T16:50:54.875Z,98949.95
2023-03-21T16:53:25.909Z,98952.30
2023-03-21T16:56:02.535Z,98957.23
2023-03-21T16:58:35.884Z,98955.23
2023-03-21T17:01:07.354Z,98955.70
2023-03-21T17:03:38.285Z,98953.27
2023-03-21T17:06:14.227Z,98951.34
2023-03-21T17:08:47.611Z,98950.49
2023-03-21T17:11:20.591Z,98948.40
2023-03-21T17:13:53.000Z,98950.15
2023-03-21T17:16:27.325Z,98944.79
2023-03-21T17:18:58.470Z,98941.84
2023-03-21T17:21:31.802Z,98941.91
2023-03-21T17:24:02.574Z,98945.42
2023-03-21T17:26:34.065Z,98943.67
2023-03-21T17:29:05.405Z,98945.37
2023-03-21T17:31:38.100Z,98945.09
2023-03-21T17:34:09.848Z,98945.66
2023-03-21T17:36:43.378Z,98944.23
2023-03-21T17:39:19.717Z,98944.91
2023-03-21T17:41:51.085Z,98942.08
2023-03-21T17:44:22.519Z,98938.39
2023-03-21T17:46:53.857Z,98942.45
2023-03-21T17:49:24.885Z,98940.69
2023-03-21T17:51:56.069Z,98939.35
2023-03-21T17:54:26.800Z,98941.05
2023-03-21T17:56:57.850Z,98946.50
2023-03-21T17:59:28.994Z,98951.89
2023-03-21T18:02:00.287Z,98948.02
2023-03-21T18:04:31.274Z,98952.30
2023-03-21T18:07:02.147Z,98954.32
2023-03-21T18:09:33.303Z,98955.83
2023-03-21T18:12:04.165Z,98953.20
2023-03-21T18:14:38.839Z,98953.70
2023-03-21T18:17:12.424Z,98956.37
2023-03-21T18:19:45.130Z,98954.94
2023-03-21T18:22:18.238Z,98957.66
2023-03-21T18:24:49.549Z,98954.94
2023-03-21T18:27:20.522Z,98957.75
2023-03-21T18:30:25.761Z,98957.63
2023-03-21T18:32:44.030Z,98962.00
2023-03-21T18:35:16.678Z,98957.84
2023-03-21T18:37:47.720Z,98961.73
2023-03-21T18:40:22.159Z,98956.52
2023-03-21T18:43:51.688Z,98959.27
2023-03-21T18:45:44.229Z,98956.66
2023-03-21T18:48:15.150Z,98956.61
2023-03-21T18:50:47.632Z,98958.64
2023-03-21T18:53:19.008Z,98957.09
2023-03-21T18:55:52.356Z,98955.73
2023-03-21T18:58:23.950Z,98946.88
2023-03-21T19:00:55.469Z,98945.00
2023-03-21T19:03:37.216Z,98943.05
2023-03-21T19:06:10.013Z,98942.45
2023-03-21T19:08:42.004Z,98945.30
2023-03-21T19:11:13.264Z,98941.76
2023-03-21T19:13:44.438Z,98941.27
2023-03-21T19:16:17.809Z,98941.77
2023-03-21T19:18:54.805Z,98943.08
2023-03-21T19:21:28.128Z,98941.91
2023-03-21T19:24:25.143Z,98941.11
2023-03-21T19:26:49.637Z,98941.27
2023-03-21T19:29:21.437Z,98949.05
2023-03-21T19:31:52.692Z,98948.84
2023-03-21T19:34:24.120Z,98949.77
2023-03-21T19:36:55.348Z,98945.98
2023-03-21T19:39:28.185Z,98943.09
2023-03-21T19:42:15.145Z,98940.13
2023-03-21T19:44:47.548Z,98940.00
2023-03-21T19:47:20.666Z,98939.66
2023-03-21T19:52:46.236Z,98942.80
2023-03-21T19:55:17.915Z,98939.98
2023-03-21T19:57:49.521Z,98944.48
2023-03-21T20:00:22.438Z,98944.98
2023-03-21T20:02:54.164Z,98947.33
2023-03-21T20:05:25.903Z,98945.80
2023-03-21T20:07:57.596Z,98943.46
2023-03-21T20:10:30.014Z,98943.88
2023-03-21T20:13:01.038Z,98943.23
2023-03-21T20:15:32.402Z,98944.51
2023-03-21T20:18:03.538Z,98940.27
2023-03-21T20:20:34.579Z,98939.51
2023-03-21T20:23:08.403Z,98946.51
2023-03-21T20:25:43.253Z,98943.98
2023-03-21T20:28:22.579Z,98943.04
2023-03-21T20:31:00.435Z,98942.59
2023-03-21T20:33:31.900Z,98941.20
2023-03-21T20:36:47.954Z,98934.35
2023-03-21T20:38:56.433Z,98931.60
2023-03-21T20:41:27.247Z,98933.06
2023-03-21T20:46:52.480Z,98935.94
2023-03-21T20:49:24.458Z,98939.89
2023-03-21T20:54:48.019Z,98936.11
2023-03-21T20:57:20.099Z,98934.29
2023-03-21T20:59:51.230Z,98930.48
2023-03-21T21:02:22.797Z,98929.27
2023-03-21T21:05:24.100Z,98927.19
2023-03-21T21:07:49.053Z,98920.56
2023-03-21T21:10:22.258Z,98919.77
2023-03-21T21:12:53.509Z,98917.70
2023-03-21T21:15:24.516Z,98918.16
2023-03-21T21:18:06.579Z,98919.11
2023-03-21T21:20:39.028Z,98921.17
2023-03-21T21:23:10.386Z,98920.65
2023-03-21T21:25:41.197Z,98917.46
2023-03-21T21:28:12.742Z,98915.55
2023-03-21T21:30:43.894Z,98919.27
2023-03-21T21:33:18.004Z,98911.34
2023-03-21T21:35:49.098Z,98913.86
2023-03-21T21:38:22.327Z,98913.48
2023-03-21T21:40:54.522Z,98917.05
2023-03-21T21:43:25.568Z,98913.63
2023-03-21T21:45:57.238Z,98908.94
2023-03-21T21:48:28.684Z,98908.67
2023-03-21T21:51:01.672Z,98905.48
2023-03-21T21:53:33.960Z,98910.95
2023-03-21T21:56:06.373Z,98908.44
2023-03-21T21:58:38.896Z,98911.38
2023-03-21T22:01:10.857Z,98909.55
2023-03-21T22:03:46.042Z,98911.73
2023-03-21T22:06:17.630Z,98910.11
2023-03-21T22:08:51.894Z,98907.80
2023-03-21T22:11:22.712Z,98905.62
2023-03-21T22:13:53.576Z,98902.15
2023-03-21T22:16:24.390Z,98903.42
2023-03-21T22:18:55.417Z,98907.62
2023-03-21T22:21:26.344Z,98904.44
2023-03-21T22:23:57.158Z,98901.27
2023-03-21T22:26:27.987Z,98905.59
2023-03-21T22:28:59.975Z,98902.40
2023-03-21T22:31:30.778Z,98903.37
2023-03-21T22:34:01.412Z,98899.26
2023-03-21T22:36:32.055Z,98902.16
2023-03-21T22:39:02.782Z,98902.01
2023-03-21T22:41:36.075Z,98904.30
2023-03-21T22:44:07.021Z,98904.55
2023-03-21T22:46:37.682Z,98911.88
2023-03-21T22:49:08.628Z,98915.02
2023-03-21T22:51:39.353Z,98912.70
2023-03-21T22:54:10.165Z,98911.84
2023-03-21T22:56:41.632Z,98912.41
2023-03-21T22:59:12.288Z,98910.33
2023-03-21T23:01:42.938Z,98912.49
2023-03-21T23:04:13.883Z,98914.45
2023-03-21T23:06:46.283Z,98916.02
2023-03-21T23:09:17.691Z,98910.20
2023-03-21T23:11:49.738Z,98916.62
2023-03-21T23:14:21.984Z,98908.64
2023-03-21T23:16:54.818Z,98908.98
2023-03-21T23:19:28.826Z,98907.67
2023-03-21T23:21:59.760Z,98910.89
2023-03-21T23:24:30.412Z,98910.04
2023-03-21T23:27:01.243Z,98908.80
2023-03-21T23:29:31.966Z,98907.20
2023-03-21T23:32:02.681Z,98900.22
2023-03-21T23:34:33.337Z,98900.89
2023-03-21T23:37:04.015Z,98900.16
2023-03-21T23:39:35.039Z,98898.80
2023-03-21T23:42:06.632Z,98897.27
2023-03-21T23:44:38.041Z,98894.70
2023-03-21T23:47:08.765Z,98894.66
2023-03-21T23:49:40.947Z,98891.69
2023-03-21T23:52:11.686Z,98889.12
2023-03-21T23:54:42.307Z,98884.88
2023-03-21T23:57:13.050Z,98889.17
2023-03-21T23:59:43.689Z,98886.92
